Parsival — V2MS — position and weather

sailwx.info

Track history (hours):
 
Tides and Currents Weather Stations Pressure Air Temp Water Temp Dewpoint Dewpoint Depression Visibility Wind Speed Wind Dir Waves Ship Positions

Parsival

Last reported at 2014-Nov-13 04:32 UTC. Time now 2014-Nov-23 16:15 UTC.
Position N 50°37' E 000°24'.
Warning: this ship's position is 10 days out of date.

; draft 5 m.

Type: Cargo ship. MMSI: 304010881.

Date/timePositionNaut miles runAvg speedWind from/ knotsBaromVisibWave heightAir tempDewpointWater temp
2014-Nov-13 04:32N 50°37' E 000°24'8 7.7
2014-Nov-13 03:33N 50°39' E 000°35'7 7.1
2014-Nov-13 02:33N 50°43' E 000°44'7 6.5
2014-Nov-13 01:32N 50°47' E 000°53'7 6.6
2014-Nov-13 00:25N 50°50' E 001°03'10 7.9
2014-Nov-12 23:09N 50°58' E 001°14'6 9.3
2014-Nov-12 22:33N 51°01' E 001°21'10 9.7
2014-Nov-12 21:33N 51°08' E 001°32'9 8.9
2014-Nov-12 20:33N 51°16' E 001°37'9 8.7
2014-Nov-12 19:33N 51°24' E 001°32'10 9.8
2014-Nov-12 18:34N 51°29' E 001°19'1110.7
2014-Nov-12 17:32N 51°29' E 001°01'1010.3
2014-Nov-12 16:33N 51°27' E 000°45'4 3.8
2014-Nov-12 15:29N 51°23' E 000°46'0 0.0
2014-Nov-12 14:26N 51°23' E 000°46'0 0.0
2014-Nov-12 13:29N 51°23' E 000°46'0 0.0
2014-Nov-12 12:32N 51°23' E 000°46'0 0.0
2014-Nov-12 11:32N 51°23' E 000°46'0 0.0
2014-Nov-12 10:17N 51°23' E 000°46'0 0.0
2014-Nov-12 09:20N 51°23' E 000°46'0 0.0
2014-Nov-12 08:05N 51°23' E 000°46'0 0.0
2014-Nov-12 07:32N 51°23' E 000°46'0 0.0
2014-Nov-12 06:20N 51°23' E 000°46'0 0.0
2014-Nov-12 05:08N 51°23' E 000°46'0 0.0
2014-Nov-12 04:23N 51°23' E 000°46'0 0.0
2014-Nov-12 03:23N 51°23' E 000°46'0 0.0
2014-Nov-12 02:26N 51°23' E 000°46'0 0.0
2014-Nov-12 01:26N 51°23' E 000°46'0 0.0
2014-Nov-12 00:29N 51°23' E 000°46'0 0.0
2014-Nov-11 23:29N 51°23' E 000°46'0 0.0
2014-Nov-11 22:29N 51°23' E 000°46'0 0.0
2014-Nov-11 21:29N 51°23' E 000°46'0 0.0
2014-Nov-11 20:32N 51°23' E 000°46'0 0.0
2014-Nov-11 19:20N 51°23' E 000°46'0 0.0
2014-Nov-11 18:32N 51°23' E 000°46'0 0.0
2014-Nov-11 17:32N 51°23' E 000°46'0 0.0
2014-Nov-11 16:32N 51°23' E 000°46'0 0.0
2014-Nov-11 15:20N 51°23' E 000°46'0 0.0
2014-Nov-11 14:23N 51°23' E 000°46'2 2.8
2014-Nov-11 13:34N 51°25' E 000°43'9 8.7
2014-Nov-11 12:34N 51°30' E 000°55'3 2.3
2014-Nov-11 11:23N 51°31' E 000°59'0 0.0
2014-Nov-11 10:20N 51°31' E 000°59'0 0.0
2014-Nov-11 09:23N 51°31' E 000°59'0 0.0
2014-Nov-11 08:26N 51°31' E 000°59'2 2.4
2014-Nov-11 07:33N 51°32' E 001°01'8 7.7
2014-Nov-11 06:33N 51°36' E 001°12'7 7.1
2014-Nov-11 05:33N 51°41' E 001°20'7 6.7
2014-Nov-11 04:33N 51°46' E 001°28'6 6.2
2014-Nov-11 03:33N 51°50' E 001°36'7 7.0
2014-Nov-11 02:34N 51°51' E 001°47'7 7.1
2014-Nov-11 01:33N 51°51' E 001°58'84 6.9
2014-Nov-10 13:29N 52°31' E 003°59'7 7.7
2014-Nov-10 12:33N 52°31' E 004°11'5 5.1
2014-Nov-10 11:31N 52°31' E 004°19'0 0.0
2014-Nov-10 10:31N 52°31' E 004°19'0 0.0
2014-Nov-10 09:31N 52°31' E 004°19'0 0.0
2014-Nov-10 08:31N 52°31' E 004°19'0 0.0
2014-Nov-10 07:31N 52°31' E 004°19'0 0.0
2014-Nov-10 06:31N 52°31' E 004°19'0 0.0
2014-Nov-10 05:31N 52°31' E 004°19'0 0.0
2014-Nov-10 04:31N 52°31' E 004°19'0 0.0
2014-Nov-10 03:31N 52°31' E 004°19'0 0.0
2014-Nov-10 02:31N 52°31' E 004°19'0 0.0
2014-Nov-10 01:31N 52°31' E 004°19'0 0.1
2014-Nov-10 00:31N 52°31' E 004°19'0 0.0
2014-Nov-09 23:31N 52°31' E 004°19'0 0.0
2014-Nov-09 22:31N 52°31' E 004°19'0 0.1
2014-Nov-09 21:31N 52°31' E 004°19'0 0.0
2014-Nov-09 20:31N 52°31' E 004°19'0 0.0
2014-Nov-09 19:31N 52°31' E 004°19'0 0.0
2014-Nov-09 18:28N 52°31' E 004°19'1 1.0
2014-Nov-09 17:32N 52°31' E 004°21'6 6.2
2014-Nov-09 16:34N 52°28' E 004°30'4 4.2
2014-Nov-09 15:34N 52°28' E 004°37'2 1.9
2014-Nov-09 14:33N 52°28' E 004°40'0 0.0
2014-Nov-09 13:33N 52°28' E 004°40'0 0.0
2014-Nov-09 12:33N 52°28' E 004°40'0 0.0
2014-Nov-09 11:33N 52°28' E 004°40'0 0.0
2014-Nov-09 10:33N 52°28' E 004°40'0 0.0
2014-Nov-09 09:33N 52°28' E 004°40'0 0.0
2014-Nov-09 08:33N 52°28' E 004°40'0 0.0
2014-Nov-09 07:33N 52°28' E 004°40'0 0.0
2014-Nov-09 06:33N 52°28' E 004°40'0 0.0
2014-Nov-09 05:33N 52°28' E 004°40'0 0.0
2014-Nov-09 04:33N 52°28' E 004°40'0 0.0
2014-Nov-09 03:30N 52°28' E 004°40'0 0.0
2014-Nov-09 02:33N 52°28' E 004°40'0 0.0
2014-Nov-09 01:30N 52°28' E 004°40'0 0.0
2014-Nov-09 00:30N 52°28' E 004°40'0 0.0
2014-Nov-08 23:30N 52°28' E 004°40'0 0.0
2014-Nov-08 22:33N 52°28' E 004°40'0 0.0
2014-Nov-08 21:33N 52°28' E 004°40'0 0.0
2014-Nov-08 20:30N 52°28' E 004°40'0 0.0
2014-Nov-08 19:33N 52°28' E 004°40'0 0.0
2014-Nov-08 18:33N 52°28' E 004°40'0 0.0
2014-Nov-08 17:33N 52°28' E 004°40'0 0.0
2014-Nov-08 16:30N 52°28' E 004°40'0 0.0
2014-Nov-08 15:33N 52°28' E 004°40'0 0.0
2014-Nov-08 14:33N 52°28' E 004°40'0 0.0
2014-Nov-08 13:33N 52°28' E 004°40'0 0.0
2014-Nov-08 12:33N 52°28' E 004°40'0 0.0
2014-Nov-08 11:33N 52°28' E 004°40'0 0.0
2014-Nov-08 10:33N 52°28' E 004°40'0 0.0
2014-Nov-08 09:33N 52°28' E 004°40'0 0.0
2014-Nov-08 08:33N 52°28' E 004°40'0 0.0
2014-Nov-08 07:33N 52°28' E 004°40'0 0.0
2014-Nov-08 06:33N 52°28' E 004°40'0 0.0
2014-Nov-08 05:33N 52°28' E 004°40'0 0.0
2014-Nov-08 04:33N 52°28' E 004°40'0 0.0
2014-Nov-08 03:33N 52°28' E 004°40'0 0.0
2014-Nov-08 02:33N 52°28' E 004°40'0 0.0
2014-Nov-08 01:33N 52°28' E 004°40'0 0.0
2014-Nov-08 00:33N 52°28' E 004°40'0 0.0
2014-Nov-07 23:33N 52°28' E 004°40'0 0.0
2014-Nov-07 22:33N 52°28' E 004°40'0 0.0
2014-Nov-07 21:33N 52°28' E 004°40'0 0.0
2014-Nov-07 20:33N 52°28' E 004°40'0 0.0
2014-Nov-07 19:33N 52°28' E 004°40'0 0.0
2014-Nov-07 18:33N 52°28' E 004°40'0 0.0
2014-Nov-07 17:33N 52°28' E 004°40'0 0.2
2014-Nov-07 16:33N 52°28' E 004°40'5 4.6
2014-Nov-07 15:34N 52°28' E 004°32'8 7.6
2014-Nov-07 14:33N 52°28' E 004°20'7 7.1
2014-Nov-07 13:33N 52°29' E 004°08'8 8.2
2014-Nov-07 12:33N 52°27' E 003°55'8 7.5
2014-Nov-07 11:30N 52°25' E 003°42'75 7.5
2014-Nov-07 01:33N 51°31' E 002°18'1110.7
2014-Nov-07 00:33N 51°22' E 002°09'1110.8
2014-Nov-06 23:34N 51°13' E 001°60'1111.3
2014-Nov-06 22:34N 51°05' E 001°46'1211.7
2014-Nov-06 21:33N 50°57' E 001°34'  
Track history (hours):
 
Tides and Currents Weather Stations Pressure Air Temp Water Temp Dewpoint Dewpoint Depression Visibility Wind Speed Wind Dir Waves Ship Positions

Parsival

Last reported at 2014-Nov-13 04:32 UTC. Time now 2014-Nov-23 16:15 UTC.
Position N 50°37' E 000°24'.
Warning: this ship's position is 10 days out of date.

; draft 5 m.

Type: Cargo ship. MMSI: 304010881.

Date/timePositionNaut miles runAvg speedWind from/ knotsBaromVisibWave heightAir tempDewpointWater temp
2014-Nov-13 04:32N 50°37' E 000°24'8 7.7
2014-Nov-13 03:33N 50°39' E 000°35'7 7.1
2014-Nov-13 02:33N 50°43' E 000°44'7 6.5
2014-Nov-13 01:32N 50°47' E 000°53'7 6.6
2014-Nov-13 00:25N 50°50' E 001°03'10 7.9
2014-Nov-12 23:09N 50°58' E 001°14'6 9.3
2014-Nov-12 22:33N 51°01' E 001°21'10 9.7
2014-Nov-12 21:33N 51°08' E 001°32'9 8.9
2014-Nov-12 20:33N 51°16' E 001°37'9 8.7
2014-Nov-12 19:33N 51°24' E 001°32'10 9.8
2014-Nov-12 18:34N 51°29' E 001°19'1110.7
2014-Nov-12 17:32N 51°29' E 001°01'1010.3
2014-Nov-12 16:33N 51°27' E 000°45'4 3.8
2014-Nov-12 15:29N 51°23' E 000°46'0 0.0
2014-Nov-12 14:26N 51°23' E 000°46'0 0.0
2014-Nov-12 13:29N 51°23' E 000°46'0 0.0
2014-Nov-12 12:32N 51°23' E 000°46'0 0.0
2014-Nov-12 11:32N 51°23' E 000°46'0 0.0
2014-Nov-12 10:17N 51°23' E 000°46'0 0.0
2014-Nov-12 09:20N 51°23' E 000°46'0 0.0
2014-Nov-12 08:05N 51°23' E 000°46'0 0.0
2014-Nov-12 07:32N 51°23' E 000°46'0 0.0
2014-Nov-12 06:20N 51°23' E 000°46'0 0.0
2014-Nov-12 05:08N 51°23' E 000°46'0 0.0
2014-Nov-12 04:23N 51°23' E 000°46'0 0.0
2014-Nov-12 03:23N 51°23' E 000°46'0 0.0
2014-Nov-12 02:26N 51°23' E 000°46'0 0.0
2014-Nov-12 01:26N 51°23' E 000°46'0 0.0
2014-Nov-12 00:29N 51°23' E 000°46'0 0.0
2014-Nov-11 23:29N 51°23' E 000°46'0 0.0
2014-Nov-11 22:29N 51°23' E 000°46'0 0.0
2014-Nov-11 21:29N 51°23' E 000°46'0 0.0
2014-Nov-11 20:32N 51°23' E 000°46'0 0.0
2014-Nov-11 19:20N 51°23' E 000°46'0 0.0
2014-Nov-11 18:32N 51°23' E 000°46'0 0.0
2014-Nov-11 17:32N 51°23' E 000°46'0 0.0
2014-Nov-11 16:32N 51°23' E 000°46'0 0.0
2014-Nov-11 15:20N 51°23' E 000°46'0 0.0
2014-Nov-11 14:23N 51°23' E 000°46'2 2.8
2014-Nov-11 13:34N 51°25' E 000°43'9 8.7
2014-Nov-11 12:34N 51°30' E 000°55'3 2.3
2014-Nov-11 11:23N 51°31' E 000°59'0 0.0
2014-Nov-11 10:20N 51°31' E 000°59'0 0.0
2014-Nov-11 09:23N 51°31' E 000°59'0 0.0
2014-Nov-11 08:26N 51°31' E 000°59'2 2.4
2014-Nov-11 07:33N 51°32' E 001°01'8 7.7
2014-Nov-11 06:33N 51°36' E 001°12'7 7.1
2014-Nov-11 05:33N 51°41' E 001°20'7 6.7
2014-Nov-11 04:33N 51°46' E 001°28'6 6.2
2014-Nov-11 03:33N 51°50' E 001°36'7 7.0
2014-Nov-11 02:34N 51°51' E 001°47'7 7.1
2014-Nov-11 01:33N 51°51' E 001°58'84 6.9
2014-Nov-10 13:29N 52°31' E 003°59'7 7.7
2014-Nov-10 12:33N 52°31' E 004°11'5 5.1
2014-Nov-10 11:31N 52°31' E 004°19'0 0.0
2014-Nov-10 10:31N 52°31' E 004°19'0 0.0
2014-Nov-10 09:31N 52°31' E 004°19'0 0.0
2014-Nov-10 08:31N 52°31' E 004°19'0 0.0
2014-Nov-10 07:31N 52°31' E 004°19'0 0.0
2014-Nov-10 06:31N 52°31' E 004°19'0 0.0
2014-Nov-10 05:31N 52°31' E 004°19'0 0.0
2014-Nov-10 04:31N 52°31' E 004°19'0 0.0
2014-Nov-10 03:31N 52°31' E 004°19'0 0.0
2014-Nov-10 02:31N 52°31' E 004°19'0 0.0
2014-Nov-10 01:31N 52°31' E 004°19'0 0.1
2014-Nov-10 00:31N 52°31' E 004°19'0 0.0
2014-Nov-09 23:31N 52°31' E 004°19'0 0.0
2014-Nov-09 22:31N 52°31' E 004°19'0 0.1
2014-Nov-09 21:31N 52°31' E 004°19'0 0.0
2014-Nov-09 20:31N 52°31' E 004°19'0 0.0
2014-Nov-09 19:31N 52°31' E 004°19'0 0.0
2014-Nov-09 18:28N 52°31' E 004°19'1 1.0
2014-Nov-09 17:32N 52°31' E 004°21'6 6.2
2014-Nov-09 16:34N 52°28' E 004°30'4 4.2
2014-Nov-09 15:34N 52°28' E 004°37'2 1.9
2014-Nov-09 14:33N 52°28' E 004°40'0 0.0
2014-Nov-09 13:33N 52°28' E 004°40'0 0.0
2014-Nov-09 12:33N 52°28' E 004°40'0 0.0
2014-Nov-09 11:33N 52°28' E 004°40'0 0.0
2014-Nov-09 10:33N 52°28' E 004°40'0 0.0
2014-Nov-09 09:33N 52°28' E 004°40'0 0.0
2014-Nov-09 08:33N 52°28' E 004°40'0 0.0
2014-Nov-09 07:33N 52°28' E 004°40'0 0.0
2014-Nov-09 06:33N 52°28' E 004°40'0 0.0
2014-Nov-09 05:33N 52°28' E 004°40'0 0.0
2014-Nov-09 04:33N 52°28' E 004°40'0 0.0
2014-Nov-09 03:30N 52°28' E 004°40'0 0.0
2014-Nov-09 02:33N 52°28' E 004°40'0 0.0
2014-Nov-09 01:30N 52°28' E 004°40'0 0.0
2014-Nov-09 00:30N 52°28' E 004°40'0 0.0
2014-Nov-08 23:30N 52°28' E 004°40'0 0.0
2014-Nov-08 22:33N 52°28' E 004°40'0 0.0
2014-Nov-08 21:33N 52°28' E 004°40'0 0.0
2014-Nov-08 20:30N 52°28' E 004°40'0 0.0
2014-Nov-08 19:33N 52°28' E 004°40'0 0.0
2014-Nov-08 18:33N 52°28' E 004°40'0 0.0
2014-Nov-08 17:33N 52°28' E 004°40'0 0.0
2014-Nov-08 16:30N 52°28' E 004°40'0 0.0
2014-Nov-08 15:33N 52°28' E 004°40'0 0.0
2014-Nov-08 14:33N 52°28' E 004°40'0 0.0
2014-Nov-08 13:33N 52°28' E 004°40'0 0.0
2014-Nov-08 12:33N 52°28' E 004°40'0 0.0
2014-Nov-08 11:33N 52°28' E 004°40'0 0.0
2014-Nov-08 10:33N 52°28' E 004°40'0 0.0
2014-Nov-08 09:33N 52°28' E 004°40'0 0.0
2014-Nov-08 08:33N 52°28' E 004°40'0 0.0
2014-Nov-08 07:33N 52°28' E 004°40'0 0.0
2014-Nov-08 06:33N 52°28' E 004°40'0 0.0
2014-Nov-08 05:33N 52°28' E 004°40'0 0.0
2014-Nov-08 04:33N 52°28' E 004°40'0 0.0
2014-Nov-08 03:33N 52°28' E 004°40'0 0.0
2014-Nov-08 02:33N 52°28' E 004°40'0 0.0
2014-Nov-08 01:33N 52°28' E 004°40'0 0.0
2014-Nov-08 00:33N 52°28' E 004°40'0 0.0
2014-Nov-07 23:33N 52°28' E 004°40'0 0.0
2014-Nov-07 22:33N 52°28' E 004°40'0 0.0
2014-Nov-07 21:33N 52°28' E 004°40'0 0.0
2014-Nov-07 20:33N 52°28' E 004°40'0 0.0
2014-Nov-07 19:33N 52°28' E 004°40'0 0.0
2014-Nov-07 18:33N 52°28' E 004°40'0 0.0
2014-Nov-07 17:33N 52°28' E 004°40'0 0.2
2014-Nov-07 16:33N 52°28' E 004°40'5 4.6
2014-Nov-07 15:34N 52°28' E 004°32'8 7.6
2014-Nov-07 14:33N 52°28' E 004°20'7 7.1
2014-Nov-07 13:33N 52°29' E 004°08'8 8.2
2014-Nov-07 12:33N 52°27' E 003°55'8 7.5
2014-Nov-07 11:30N 52°25' E 003°42'75 7.5
2014-Nov-07 01:33N 51°31' E 002°18'1110.7
2014-Nov-07 00:33N 51°22' E 002°09'1110.8
2014-Nov-06 23:34N 51°13' E 001°60'1111.3
2014-Nov-06 22:34N 51°05' E 001°46'1211.7
2014-Nov-06 21:33N 50°57' E 001°34'  

Dump ship's entire track history